sensor_id;sensor_type;location;lat;lon;timestamp;pressure;altitude;pressure_sealevel;temperature;humidity
32330;BME280;18807;52.434;13.238;2023-04-06T00:00:19;101713.16;;;3.83;86.72
32330;BME280;18807;52.434;13.238;2023-04-06T00:07:55;101699.25;;;3.71;86.89
32330;BME280;18807;52.434;13.238;2023-04-06T00:15:29;101703.88;;;3.59;87.91
32330;BME280;18807;52.434;13.238;2023-04-06T00:23:04;101700.78;;;3.51;88.51
32330;BME280;18807;52.434;13.238;2023-04-06T00:30:40;101687.94;;;3.43;88.80
32330;BME280;18807;52.434;13.238;2023-04-06T00:38:33;101690.13;;;3.35;89.22
32330;BME280;18807;52.434;13.238;2023-04-06T00:46:07;101688.88;;;3.29;89.19
32330;BME280;18807;52.434;13.238;2023-04-06T00:53:43;101683.88;;;3.19;89.74
32330;BME280;18807;52.434;13.238;2023-04-06T01:01:17;101683.34;;;3.10;89.81
32330;BME280;18807;52.434;13.238;2023-04-06T01:08:53;101678.13;;;2.97;90.44
32330;BME280;18807;52.434;13.238;2023-04-06T01:16:44;101685.44;;;2.86;91.17
32330;BME280;18807;52.434;13.238;2023-04-06T01:24:38;101688.88;;;2.71;92.15
32330;BME280;18807;52.434;13.238;2023-04-06T01:32:12;101687.19;;;2.58;93.05
32330;BME280;18807;52.434;13.238;2023-04-06T01:39:48;101685.84;;;2.50;93.76
32330;BME280;18807;52.434;13.238;2023-04-06T01:47:22;101684.44;;;2.42;93.60
32330;BME280;18807;52.434;13.238;2023-04-06T01:54:58;101672.44;;;2.33;94.57
32330;BME280;18807;52.434;13.238;2023-04-06T02:02:32;101665.56;;;2.22;94.69
32330;BME280;18807;52.434;13.238;2023-04-06T02:10:11;101668.56;;;2.13;94.53
32330;BME280;18807;52.434;13.238;2023-04-06T02:17:46;101674.47;;;2.09;94.28
32330;BME280;18807;52.434;13.238;2023-04-06T02:25:22;101678.41;;;2.02;95.06
32330;BME280;18807;52.434;13.238;2023-04-06T02:32:56;101675.19;;;1.93;95.92
32330;BME280;18807;52.434;13.238;2023-04-06T02:40:31;101672.19;;;1.87;96.30
32330;BME280;18807;52.434;13.238;2023-04-06T02:48:05;101672.59;;;1.80;96.53
32330;BME280;18807;52.434;13.238;2023-04-06T02:55:41;101673.72;;;1.71;97.42
32330;BME280;18807;52.434;13.238;2023-04-06T03:03:15;101671.53;;;1.64;97.61
32330;BME280;18807;52.434;13.238;2023-04-06T03:10:50;101672.63;;;1.54;97.65
32330;BME280;18807;52.434;13.238;2023-04-06T03:18:25;101692.19;;;1.45;99.39
32330;BME280;18807;52.434;13.238;2023-04-06T03:26:00;101689.97;;;1.38;99.94
32330;BME280;18807;52.434;13.238;2023-04-06T03:33:35;101690.47;;;1.32;99.75
32330;BME280;18807;52.434;13.238;2023-04-06T03:41:10;101690.88;;;1.25;100.00
32330;BME280;18807;52.434;13.238;2023-04-06T03:48:45;101694.81;;;1.19;100.00
32330;BME280;18807;52.434;13.238;2023-04-06T03:56:20;101705.94;;;1.15;100.00
32330;BME280;18807;52.434;13.238;2023-04-06T04:03:54;101711.81;;;1.11;99.82
32330;BME280;18807;52.434;13.238;2023-04-06T04:11:30;101716.78;;;1.06;99.85
32330;BME280;18807;52.434;13.238;2023-04-06T04:19:04;101722.53;;;1.01;100.00
32330;BME280;18807;52.434;13.238;2023-04-06T04:26:40;101719.59;;;0.96;100.00
32330;BME280;18807;52.434;13.238;2023-04-06T04:34:14;101721.91;;;0.92;100.00
32330;BME280;18807;52.434;13.238;2023-04-06T04:41:50;101724.13;;;0.86;100.00
32330;BME280;18807;52.434;13.238;2023-04-06T04:49:24;101722.16;;;0.83;100.00
32330;BME280;18807;52.434;13.238;2023-04-06T04:57:00;101727.31;;;0.82;100.00
32330;BME280;18807;52.434;13.238;2023-04-06T05:04:35;101730.75;;;0.81;100.00
32330;BME280;18807;52.434;13.238;2023-04-06T05:12:10;101736.94;;;0.81;100.00
32330;BME280;18807;52.434;13.238;2023-04-06T05:19:45;101733.59;;;0.84;100.00
32330;BME280;18807;52.434;13.238;2023-04-06T05:27:20;101738.25;;;0.88;100.00
32330;BME280;18807;52.434;13.238;2023-04-06T05:34:54;101741.31;;;0.94;100.00
32330;BME280;18807;52.434;13.238;2023-04-06T05:42:36;101738.03;;;1.09;100.00
32330;BME280;18807;52.434;13.238;2023-04-06T05:50:10;101748.56;;;1.22;100.00
32330;BME280;18807;52.434;13.238;2023-04-06T05:58:04;101743.03;;;1.44;100.00
32330;BME280;18807;52.434;13.238;2023-04-06T06:05:38;101740.06;;;1.65;100.00
32330;BME280;18807;52.434;13.238;2023-04-06T06:13:13;101740.53;;;1.99;100.00
32330;BME280;18807;52.434;13.238;2023-04-06T06:20:47;101744.00;;;2.39;100.00
32330;BME280;18807;52.434;13.238;2023-04-06T06:28:22;101749.59;;;2.58;100.00
32330;BME280;18807;52.434;13.238;2023-04-06T06:36:14;101750.75;;;3.05;95.31
32330;BME280;18807;52.434;13.238;2023-04-06T06:43:50;101749.78;;;3.17;97.20
32330;BME280;18807;52.434;13.238;2023-04-06T06:51:24;101753.69;;;3.53;91.93
32330;BME280;18807;52.434;13.238;2023-04-06T06:58:59;101759.59;;;3.63;89.82
32330;BME280;18807;52.434;13.238;2023-04-06T07:06:35;101746.81;;;3.85;88.30
32330;BME280;18807;52.434;13.238;2023-04-06T07:14:11;101754.47;;;4.11;85.03
32330;BME280;18807;52.434;13.238;2023-04-06T07:21:45;101756.25;;;4.59;83.42
32330;BME280;18807;52.434;13.238;2023-04-06T07:29:21;101747.31;;;5.05;78.65
32330;BME280;18807;52.434;13.238;2023-04-06T07:36:55;101747.47;;;5.59;75.58
32330;BME280;18807;52.434;13.238;2023-04-06T07:44:49;101744.72;;;5.91;73.75
32330;BME280;18807;52.434;13.238;2023-04-06T07:52:24;101743.75;;;6.44;72.27
32330;BME280;18807;52.434;13.238;2023-04-06T07:59:59;101749.34;;;6.88;72.35
32330;BME280;18807;52.434;13.238;2023-04-06T08:07:33;101745.00;;;7.91;63.93
32330;BME280;18807;52.434;13.238;2023-04-06T08:15:10;101749.63;;;8.60;62.31
32330;BME280;18807;52.434;13.238;2023-04-06T08:22:44;101742.84;;;8.91;57.76
32330;BME280;18807;52.434;13.238;2023-04-06T08:30:19;101755.91;;;9.57;51.92
32330;BME280;18807;52.434;13.238;2023-04-06T08:37:53;101752.53;;;10.13;49.44
32330;BME280;18807;52.434;13.238;2023-04-06T08:45:29;101752.06;;;10.26;48.88
32330;BME280;18807;52.434;13.238;2023-04-06T08:53:06;101756.41;;;10.51;47.76
32330;BME280;18807;52.434;13.238;2023-04-06T09:00:42;101755.34;;;10.74;43.93
32330;BME280;18807;52.434;13.238;2023-04-06T09:08:16;101749.25;;;11.09;41.57
32330;BME280;18807;52.434;13.238;2023-04-06T09:16:01;101740.47;;;11.13;43.40
32330;BME280;18807;52.434;13.238;2023-04-06T09:23:35;101724.47;;;11.47;42.54
32330;BME280;18807;52.434;13.238;2023-04-06T09:31:11;101727.09;;;11.78;39.55
32330;BME280;18807;52.434;13.238;2023-04-06T09:38:53;101720.06;;;11.49;39.52
32330;BME280;18807;52.434;13.238;2023-04-06T09:46:31;101718.53;;;11.24;39.96
32330;BME280;18807;52.434;13.238;2023-04-06T09:54:23;101718.31;;;11.82;40.91
32330;BME280;18807;52.434;13.238;2023-04-06T10:02:03;101707.00;;;11.93;39.54
32330;BME280;18807;52.434;13.238;2023-04-06T10:09:39;101707.91;;;11.94;37.05
32330;BME280;18807;52.434;13.238;2023-04-06T10:17:14;101707.91;;;11.60;35.62
32330;BME280;18807;52.434;13.238;2023-04-06T10:24:49;101699.31;;;11.39;37.84
32330;BME280;18807;52.434;13.238;2023-04-06T10:32:33;101698.63;;;11.15;35.74
32330;BME280;18807;52.434;13.238;2023-04-06T10:40:17;101696.31;;;10.96;33.76
32330;BME280;18807;52.434;13.238;2023-04-06T10:47:54;101687.38;;;10.95;35.70
32330;BME280;18807;52.434;13.238;2023-04-06T10:55:29;101686.81;;;11.07;31.80
32330;BME280;18807;52.434;13.238;2023-04-06T11:03:06;101685.91;;;10.75;34.97
32330;BME280;18807;52.434;13.238;2023-04-06T11:10:41;101673.41;;;10.74;34.96
32330;BME280;18807;52.434;13.238;2023-04-06T11:18:19;101671.72;;;10.78;33.47
32330;BME280;18807;52.434;13.238;2023-04-06T11:25:54;101663.00;;;10.85;34.09
32330;BME280;18807;52.434;13.238;2023-04-06T11:33:35;101662.31;;;10.90;34.82
32330;BME280;18807;52.434;13.238;2023-04-06T11:41:09;101653.84;;;10.75;35.59
32330;BME280;18807;52.434;13.238;2023-04-06T11:48:46;101652.59;;;10.94;34.85
32330;BME280;18807;52.434;13.238;2023-04-06T11:56:28;101642.22;;;11.06;35.00
32330;BME280;18807;52.434;13.238;2023-04-06T12:04:04;101630.31;;;11.26;35.36
32330;BME280;18807;52.434;13.238;2023-04-06T12:11:39;101635.94;;;11.38;34.59
32330;BME280;18807;52.434;13.238;2023-04-06T12:19:15;101621.56;;;11.33;36.57
32330;BME280;18807;52.434;13.238;2023-04-06T12:26:49;101626.50;;;11.52;35.91
32330;BME280;18807;52.434;13.238;2023-04-06T12:34:36;101625.56;;;11.16;35.00
32330;BME280;18807;52.434;13.238;2023-04-06T12:42:10;101619.66;;;11.27;34.26
32330;BME280;18807;52.434;13.238;2023-04-06T12:49:46;101612.50;;;11.62;33.64
32330;BME280;18807;52.434;13.238;2023-04-06T12:57:24;101605.69;;;11.74;34.52
32330;BME280;18807;52.434;13.238;2023-04-06T13:05:00;101597.16;;;11.55;35.86
32330;BME280;18807;52.434;13.238;2023-04-06T13:12:34;101602.03;;;11.37;34.61
32330;BME280;18807;52.434;13.238;2023-04-06T13:20:10;101586.09;;;11.75;35.82
32330;BME280;18807;52.434;13.238;2023-04-06T13:27:44;101576.47;;;11.83;35.24
32330;BME280;18807;52.434;13.238;2023-04-06T13:35:22;101572.69;;;11.75;35.29
32330;BME280;18807;52.434;13.238;2023-04-06T13:42:56;101576.53;;;11.86;34.05
32330;BME280;18807;52.434;13.238;2023-04-06T13:50:32;101562.22;;;11.84;33.79
32330;BME280;18807;52.434;13.238;2023-04-06T13:58:06;101568.00;;;12.04;34.77
32330;BME280;18807;52.434;13.238;2023-04-06T14:05:41;101562.34;;;11.90;35.12
32330;BME280;18807;52.434;13.238;2023-04-06T14:13:15;101557.69;;;11.82;34.66
32330;BME280;18807;52.434;13.238;2023-04-06T14:20:57;101556.38;;;12.03;35.93
32330;BME280;18807;52.434;13.238;2023-04-06T14:28:33;101556.31;;;11.62;34.79
32330;BME280;18807;52.434;13.238;2023-04-06T14:36:10;101550.97;;;12.00;34.62
32330;BME280;18807;52.434;13.238;2023-04-06T14:43:44;101546.44;;;11.98;35.57
32330;BME280;18807;52.434;13.238;2023-04-06T14:51:19;101540.88;;;11.89;35.56
32330;BME280;18807;52.434;13.238;2023-04-06T14:58:53;101546.22;;;11.87;36.05
32330;BME280;18807;52.434;13.238;2023-04-06T15:06:30;101537.19;;;11.84;36.23
32330;BME280;18807;52.434;13.238;2023-04-06T15:14:05;101542.56;;;11.48;36.23
32330;BME280;18807;52.434;13.238;2023-04-06T15:21:41;101535.84;;;11.64;36.45
32330;BME280;18807;52.434;13.238;2023-04-06T15:29:15;101537.06;;;11.42;36.65
32330;BME280;18807;52.434;13.238;2023-04-06T15:36:50;101533.34;;;11.34;36.59
32330;BME280;18807;52.434;13.238;2023-04-06T15:44:25;101529.00;;;11.41;36.97
32330;BME280;18807;52.434;13.238;2023-04-06T15:52:00;101526.63;;;11.53;36.79
32330;BME280;18807;52.434;13.238;2023-04-06T15:59:34;101535.41;;;11.46;36.71
32330;BME280;18807;52.434;13.238;2023-04-06T16:07:09;101537.16;;;11.45;36.39
32330;BME280;18807;52.434;13.238;2023-04-06T16:14:44;101529.38;;;11.19;36.60
32330;BME280;18807;52.434;13.238;2023-04-06T16:22:19;101532.91;;;11.18;36.67
32330;BME280;18807;52.434;13.238;2023-04-06T16:29:53;101535.44;;;11.12;37.29
32330;BME280;18807;52.434;13.238;2023-04-06T16:37:29;101528.09;;;11.03;37.83
32330;BME280;18807;52.434;13.238;2023-04-06T16:45:05;101540.00;;;10.82;37.82
32330;BME280;18807;52.434;13.238;2023-04-06T16:52:40;101530.94;;;10.75;38.48
32330;BME280;18807;52.434;13.238;2023-04-06T17:00:15;101541.00;;;10.53;38.45
32330;BME280;18807;52.434;13.238;2023-04-06T17:07:50;101532.38;;;10.32;39.82
32330;BME280;18807;52.434;13.238;2023-04-06T17:15:24;101533.72;;;10.16;39.58
32330;BME280;18807;52.434;13.238;2023-04-06T17:23:01;101541.25;;;10.01;40.46
32330;BME280;18807;52.434;13.238;2023-04-06T17:30:35;101542.59;;;9.87;40.85
32330;BME280;18807;52.434;13.238;2023-04-06T17:38:11;101561.66;;;9.71;41.05
32330;BME280;18807;52.434;13.238;2023-04-06T17:45:47;101560.25;;;9.55;41.33
32330;BME280;18807;52.434;13.238;2023-04-06T17:53:22;101567.84;;;9.42;41.91
32330;BME280;18807;52.434;13.238;2023-04-06T18:00:57;101563.84;;;9.29;42.28
32330;BME280;18807;52.434;13.238;2023-04-06T18:08:32;101569.59;;;9.15;42.73
32330;BME280;18807;52.434;13.238;2023-04-06T18:16:06;101582.50;;;9.03;43.46
32330;BME280;18807;52.434;13.238;2023-04-06T18:23:41;101575.72;;;8.87;43.68
32330;BME280;18807;52.434;13.238;2023-04-06T18:31:15;101584.22;;;8.76;44.41
32330;BME280;18807;52.434;13.238;2023-04-06T18:38:51;101583.66;;;8.61;44.86
32330;BME280;18807;52.434;13.238;2023-04-06T18:46:42;101588.34;;;8.43;45.32
32330;BME280;18807;52.434;13.238;2023-04-06T18:54:18;101594.91;;;8.29;45.88
32330;BME280;18807;52.434;13.238;2023-04-06T19:01:52;101596.16;;;8.16;46.43
32330;BME280;18807;52.434;13.238;2023-04-06T19:09:29;101608.03;;;8.02;47.17
32330;BME280;18807;52.434;13.238;2023-04-06T19:17:03;101615.34;;;7.85;46.85
32330;BME280;18807;52.434;13.238;2023-04-06T19:24:38;101602.50;;;7.74;47.43
32330;BME280;18807;52.434;13.238;2023-04-06T19:32:14;101604.53;;;7.59;47.94
32330;BME280;18807;52.434;13.238;2023-04-06T19:39:50;101603.31;;;7.51;48.29
32330;BME280;18807;52.434;13.238;2023-04-06T19:47:24;101598.41;;;7.39;49.12
32330;BME280;18807;52.434;13.238;2023-04-06T19:55:00;101600.81;;;7.33;49.58
32330;BME280;18807;52.434;13.238;2023-04-06T20:02:34;101606.59;;;7.23;50.63
32330;BME280;18807;52.434;13.238;2023-04-06T20:10:09;101601.56;;;7.09;51.00
32330;BME280;18807;52.434;13.238;2023-04-06T20:17:43;101602.38;;;7.08;51.91
32330;BME280;18807;52.434;13.238;2023-04-06T20:25:19;101609.72;;;6.93;52.37
32330;BME280;18807;52.434;13.238;2023-04-06T20:32:53;101613.00;;;6.87;52.83
32330;BME280;18807;52.434;13.238;2023-04-06T20:40:28;101607.34;;;6.80;53.60
32330;BME280;18807;52.434;13.238;2023-04-06T20:48:02;101608.78;;;6.72;53.96
32330;BME280;18807;52.434;13.238;2023-04-06T20:55:40;101603.22;;;6.66;54.49
32330;BME280;18807;52.434;13.238;2023-04-06T21:03:31;101600.50;;;6.64;56.03
32330;BME280;18807;52.434;13.238;2023-04-06T21:11:07;101609.09;;;6.59;56.83
32330;BME280;18807;52.434;13.238;2023-04-06T21:18:42;101598.88;;;6.49;57.98
32330;BME280;18807;52.434;13.238;2023-04-06T21:26:17;101595.69;;;6.37;58.41
32330;BME280;18807;52.434;13.238;2023-04-06T21:33:51;101596.06;;;6.25;58.19
32330;BME280;18807;52.434;13.238;2023-04-06T21:41:29;101599.00;;;6.12;58.84
32330;BME280;18807;52.434;13.238;2023-04-06T21:49:03;101602.13;;;6.03;59.54
32330;BME280;18807;52.434;13.238;2023-04-06T21:56:38;101597.13;;;5.92;60.26
32330;BME280;18807;52.434;13.238;2023-04-06T22:04:12;101595.81;;;5.82;59.82
32330;BME280;18807;52.434;13.238;2023-04-06T22:11:48;101595.22;;;5.70;60.23
32330;BME280;18807;52.434;13.238;2023-04-06T22:19:22;101592.88;;;5.59;61.21
32330;BME280;18807;52.434;13.238;2023-04-06T22:26:57;101593.06;;;5.44;62.80
32330;BME280;18807;52.434;13.238;2023-04-06T22:34:31;101587.97;;;5.31;64.39
32330;BME280;18807;52.434;13.238;2023-04-06T22:42:07;101581.13;;;5.17;64.82
32330;BME280;18807;52.434;13.238;2023-04-06T22:49:41;101578.69;;;5.04;65.37
32330;BME280;18807;52.434;13.238;2023-04-06T22:57:16;101578.25;;;4.95;66.26
32330;BME280;18807;52.434;13.238;2023-04-06T23:04:50;101574.91;;;4.82;67.01
32330;BME280;18807;52.434;13.238;2023-04-06T23:12:26;101583.13;;;4.70;67.68
32330;BME280;18807;52.434;13.238;2023-04-06T23:20:00;101572.88;;;4.60;68.65
32330;BME280;18807;52.434;13.238;2023-04-06T23:27:35;101571.59;;;4.52;69.63
32330;BME280;18807;52.434;13.238;2023-04-06T23:35:09;101570.19;;;4.43;70.63
32330;BME280;18807;52.434;13.238;2023-04-06T23:42:45;101563.53;;;4.33;71.46
32330;BME280;18807;52.434;13.238;2023-04-06T23:50:19;101570.00;;;4.22;72.55
32330;BME280;18807;52.434;13.238;2023-04-06T23:57:55;101567.84;;;4.15;73.58
